createdAt,value
2022-10-22T00:00:27.119Z,17
2022-10-22T00:01:27.119Z,14
2022-10-22T00:02:27.132Z,16
2022-10-22T00:03:27.133Z,15
2022-10-22T00:04:27.120Z,14
2022-10-22T00:05:27.133Z,16
2022-10-22T00:06:27.134Z,18
2022-10-22T00:07:27.134Z,19
2022-10-22T00:08:27.121Z,19
2022-10-22T00:09:27.135Z,19
2022-10-22T00:10:27.135Z,20
2022-10-22T00:11:27.135Z,21
2022-10-22T00:12:27.122Z,19
2022-10-22T00:13:27.136Z,20
2022-10-22T00:14:27.137Z,17
2022-10-22T00:15:27.123Z,19
2022-10-22T00:16:27.124Z,20
2022-10-22T00:17:27.137Z,16
2022-10-22T00:18:27.138Z,15
2022-10-22T00:19:27.125Z,14
2022-10-22T00:20:27.203Z,14
2022-10-22T00:21:27.139Z,17
2022-10-22T00:22:27.139Z,17
2022-10-22T00:23:27.126Z,20
2022-10-22T00:24:27.140Z,18
2022-10-22T00:25:27.140Z,18
2022-10-22T00:26:27.140Z,17
2022-10-22T00:27:27.127Z,17
2022-10-22T00:28:27.141Z,21
2022-10-22T00:29:27.142Z,19
2022-10-22T00:30:27.141Z,19
2022-10-22T00:31:27.129Z,16
2022-10-22T00:32:27.168Z,18
2022-10-22T00:33:27.143Z,16
2022-10-22T00:34:27.130Z,15
2022-10-22T00:35:27.130Z,16
2022-10-22T00:36:27.143Z,18
2022-10-22T00:37:27.144Z,16
2022-10-22T00:38:27.131Z,16
2022-10-22T00:39:27.145Z,13
2022-10-22T00:40:27.145Z,13
2022-10-22T00:41:27.145Z,12
2022-10-22T00:42:27.132Z,13
2022-10-22T00:43:27.146Z,12
2022-10-22T00:44:27.173Z,12
2022-10-22T00:45:27.146Z,17
2022-10-22T00:46:27.134Z,17
2022-10-22T00:47:27.147Z,16
2022-10-22T00:48:27.148Z,17
2022-10-22T00:49:27.148Z,17
2022-10-22T00:50:27.135Z,17
2022-10-22T00:51:27.174Z,17
2022-10-22T00:52:27.150Z,20
2022-10-22T00:53:27.136Z,18
2022-10-22T00:54:27.136Z,17
2022-10-22T00:55:27.150Z,18
2022-10-22T00:56:27.151Z,22
2022-10-22T00:57:27.137Z,18
2022-10-22T00:58:27.151Z,19
2022-10-22T00:59:27.151Z,17
2022-10-22T01:00:27.151Z,20
2022-10-22T01:01:27.139Z,17
2022-10-22T01:02:27.152Z,17
2022-10-22T01:03:27.152Z,14
2022-10-22T01:04:27.153Z,15
2022-10-22T01:05:27.140Z,15
2022-10-22T01:06:27.153Z,19
2022-10-22T01:07:27.154Z,16
2022-10-22T01:08:27.154Z,15
2022-10-22T01:09:27.141Z,14
2022-10-22T01:10:27.155Z,16
2022-10-22T01:11:27.155Z,13
2022-10-22T01:12:27.142Z,14
2022-10-22T01:13:27.142Z,14
2022-10-22T01:14:27.156Z,14
2022-10-22T01:15:27.157Z,17
2022-10-22T01:16:27.143Z,15
2022-10-22T01:17:27.157Z,16
2022-10-22T01:18:27.157Z,15
2022-10-22T01:19:27.158Z,13
2022-10-22T01:20:27.145Z,13
2022-10-22T01:21:27.158Z,13
2022-10-22T01:22:27.159Z,15
2022-10-22T01:23:27.159Z,13
2022-10-22T01:24:27.146Z,12
2022-10-22T01:25:27.160Z,15
2022-10-22T01:26:27.160Z,14
2022-10-22T01:27:27.147Z,16
2022-10-22T01:28:27.147Z,19
2022-10-22T01:29:27.161Z,14
2022-10-22T01:30:27.162Z,15
2022-10-22T01:31:27.148Z,13
2022-10-22T01:32:27.149Z,12
2022-10-22T01:33:27.162Z,11
2022-10-22T01:34:27.162Z,10
2022-10-22T01:35:27.150Z,14
2022-10-22T01:36:27.163Z,13
2022-10-22T01:37:27.163Z,13
2022-10-22T01:38:27.164Z,14
2022-10-22T01:39:27.164Z,14
2022-10-22T01:40:27.164Z,12
2022-10-22T01:41:27.165Z,12
2022-10-22T01:42:27.165Z,12
2022-10-22T01:43:27.152Z,13
2022-10-22T01:44:27.166Z,11
2022-10-22T01:45:27.167Z,12
2022-10-22T01:46:27.153Z,13
2022-10-22T01:47:27.154Z,16
2022-10-22T01:48:27.167Z,16
2022-10-22T01:49:27.168Z,14
2022-10-22T01:50:27.154Z,15
2022-10-22T01:51:27.194Z,12
2022-10-22T01:52:27.168Z,12
2022-10-22T01:53:27.169Z,15
2022-10-22T01:54:27.156Z,15
2022-10-22T01:55:27.169Z,14
2022-10-22T01:56:27.169Z,13
2022-10-22T01:57:27.170Z,15
2022-10-22T01:58:27.157Z,16
2022-10-22T01:59:27.171Z,14
2022-10-22T02:00:27.172Z,16
2022-10-22T02:01:27.171Z,13
2022-10-22T02:02:27.158Z,14
2022-10-22T02:03:27.197Z,12
2022-10-22T02:04:27.173Z,12
2022-10-22T02:05:27.159Z,14
2022-10-22T02:06:27.160Z,15
2022-10-22T02:07:27.173Z,13
2022-10-22T02:08:27.174Z,19
2022-10-22T02:09:27.161Z,16
2022-10-22T02:10:27.175Z,18
2022-10-22T02:11:27.174Z,16
2022-10-22T02:12:27.175Z,15
2022-10-22T02:13:27.162Z,15
2022-10-22T02:14:27.175Z,15
2022-10-22T02:15:27.176Z,18
2022-10-22T02:16:27.176Z,17
2022-10-22T02:17:27.163Z,19
2022-10-22T02:18:27.177Z,15
2022-10-22T02:19:27.177Z,18
2022-10-22T02:20:27.177Z,16
2022-10-22T02:21:27.164Z,17
2022-10-22T02:22:27.178Z,17
2022-10-22T02:23:27.179Z,14
2022-10-22T02:24:27.165Z,15
2022-10-22T02:25:27.166Z,15
2022-10-22T02:26:27.179Z,16
2022-10-22T02:27:27.180Z,17
2022-10-22T02:28:27.167Z,18
2022-10-22T02:29:27.167Z,19
2022-10-22T02:30:27.180Z,21
2022-10-22T02:31:27.181Z,17
2022-10-22T02:32:27.168Z,20
2022-10-22T02:33:27.181Z,20
2022-10-22T02:34:27.182Z,20
2022-10-22T02:35:27.182Z,17
2022-10-22T02:36:27.169Z,19
2022-10-22T02:37:27.183Z,18
2022-10-22T02:38:27.183Z,21
2022-10-22T02:39:27.183Z,20
2022-10-22T02:40:27.170Z,18
2022-10-22T02:41:27.184Z,18
2022-10-22T02:42:27.185Z,19
2022-10-22T02:43:27.171Z,14
2022-10-22T02:44:27.172Z,15
2022-10-22T02:45:27.185Z,14
2022-10-22T02:46:27.186Z,12
2022-10-22T02:47:27.173Z,12
2022-10-22T02:48:27.173Z,14
2022-10-22T02:49:27.186Z,13
2022-10-22T02:50:27.187Z,13
2022-10-22T02:51:27.174Z,12
2022-10-22T02:52:27.187Z,13
2022-10-22T02:53:27.188Z,15
2022-10-22T02:54:27.188Z,13
2022-10-22T02:55:27.175Z,10
2022-10-22T02:56:27.189Z,9
2022-10-22T02:57:27.189Z,9
2022-10-22T02:58:27.189Z,12
2022-10-22T02:59:27.176Z,12
2022-10-22T03:00:27.254Z,13
2022-10-22T03:01:27.191Z,12
2022-10-22T03:02:27.177Z,13
2022-10-22T03:03:27.178Z,12
2022-10-22T03:04:27.191Z,12
2022-10-22T03:05:27.192Z,11
2022-10-22T03:06:27.179Z,15
2022-10-22T03:07:27.193Z,16
2022-10-22T03:08:27.192Z,19
2022-10-22T03:09:27.193Z,18
2022-10-22T03:10:27.180Z,17
2022-10-22T03:11:27.193Z,18
2022-10-22T03:12:27.194Z,21
2022-10-22T03:13:27.194Z,21
2022-10-22T03:14:27.181Z,21
2022-10-22T03:15:27.195Z,21
2022-10-22T03:16:27.195Z,20
2022-10-22T03:17:27.195Z,21
2022-10-22T03:18:27.182Z,19
2022-10-22T03:19:27.237Z,18
2022-10-22T03:20:27.197Z,19
2022-10-22T03:21:27.183Z,19
2022-10-22T03:22:27.184Z,20
2022-10-22T03:23:27.197Z,20
2022-10-22T03:24:27.198Z,18
2022-10-22T03:25:27.185Z,16
2022-10-22T03:26:27.185Z,17
2022-10-22T03:27:27.198Z,18
2022-10-22T03:28:27.199Z,15
2022-10-22T03:29:27.186Z,16
2022-10-22T03:30:27.199Z,18
2022-10-22T03:31:27.200Z,15
2022-10-22T03:32:27.200Z,13
2022-10-22T03:33:27.187Z,14
2022-10-22T03:34:27.201Z,15
2022-10-22T03:35:27.201Z,13
2022-10-22T03:36:27.201Z,16
2022-10-22T03:37:27.188Z,12
2022-10-22T03:38:27.202Z,13
2022-10-22T03:39:27.203Z,15
2022-10-22T03:40:27.189Z,13
2022-10-22T03:41:27.190Z,10
2022-10-22T03:42:27.203Z,11
2022-10-22T03:43:27.204Z,12
2022-10-22T03:44:27.191Z,13
2022-10-22T03:45:27.204Z,15
2022-10-22T03:46:27.204Z,17
2022-10-22T03:47:27.205Z,13
2022-10-22T03:48:27.192Z,12
2022-10-22T03:49:27.205Z,12
2022-10-22T03:50:27.206Z,10
2022-10-22T03:51:27.206Z,13
2022-10-22T03:52:27.193Z,13
2022-10-22T03:53:27.207Z,14
2022-10-22T03:54:27.208Z,14
2022-10-22T03:55:27.207Z,12
2022-10-22T03:56:27.194Z,13
2022-10-22T03:57:27.208Z,10
2022-10-22T03:58:27.209Z,14
2022-10-22T03:59:27.195Z,13
2022-10-22T04:00:27.196Z,16
2022-10-22T04:01:27.209Z,15
2022-10-22T04:02:27.210Z,15
2022-10-22T04:03:27.197Z,15
2022-10-22T04:04:27.211Z,17
2022-10-22T04:05:27.210Z,17
2022-10-22T04:06:27.211Z,22
2022-10-22T04:07:27.198Z,22
2022-10-22T04:08:27.211Z,20
2022-10-22T04:09:27.212Z,17
2022-10-22T04:10:27.212Z,15
2022-10-22T04:11:27.199Z,15
2022-10-22T04:12:27.212Z,18
2022-10-22T04:14:27.213Z,14
2022-10-22T04:15:27.200Z,15
2022-10-22T04:16:27.255Z,20
2022-10-22T04:17:27.214Z,14
2022-10-22T04:18:27.201Z,16
2022-10-22T04:19:27.201Z,17
2022-10-22T04:20:27.215Z,18
2022-10-22T04:21:27.216Z,17
2022-10-22T04:22:27.202Z,18
2022-10-22T04:23:27.203Z,20
2022-10-22T04:24:27.216Z,20
2022-10-22T04:25:27.216Z,22
2022-10-22T04:26:27.204Z,21
2022-10-22T04:27:27.217Z,18
2022-10-22T04:28:27.217Z,20
2022-10-22T04:29:27.218Z,20
2022-10-22T04:30:27.205Z,19
2022-10-22T04:31:27.218Z,16
2022-10-22T04:32:27.219Z,17
2022-10-22T04:33:27.219Z,16
2022-10-22T04:34:27.206Z,16
2022-10-22T04:35:27.220Z,19
2022-10-22T04:36:27.220Z,19
2022-10-22T04:37:27.207Z,19
2022-10-22T04:38:27.207Z,16
2022-10-22T04:39:27.221Z,14
2022-10-22T04:40:27.222Z,15
2022-10-22T04:41:27.208Z,14
2022-10-22T04:42:27.222Z,14
2022-10-22T04:43:27.222Z,15
2022-10-22T04:44:27.222Z,16
2022-10-22T04:45:27.209Z,16
2022-10-22T04:46:27.223Z,18
2022-10-22T04:47:27.223Z,16
2022-10-22T04:48:27.223Z,17
2022-10-22T04:49:27.211Z,21
2022-10-22T04:50:27.224Z,15
2022-10-22T04:51:27.225Z,17
2022-10-22T04:52:27.225Z,16
2022-10-22T04:53:27.212Z,13
2022-10-22T04:54:27.225Z,14
2022-10-22T04:55:27.226Z,16
2022-10-22T04:56:27.213Z,14
2022-10-22T04:57:27.213Z,14
2022-10-22T04:58:27.226Z,15
2022-10-22T04:59:27.267Z,19
2022-10-22T05:00:27.214Z,19
2022-10-22T05:01:27.228Z,27
2022-10-22T05:02:27.228Z,18
2022-10-22T05:03:27.228Z,19
2022-10-22T05:04:27.215Z,20
2022-10-22T05:05:27.229Z,19
2022-10-22T05:06:27.229Z,16
2022-10-22T05:07:27.229Z,16
2022-10-22T05:08:27.216Z,19
2022-10-22T05:09:27.230Z,16
2022-10-22T05:10:27.231Z,17
2022-10-22T05:11:27.217Z,16
2022-10-22T05:12:27.218Z,15
2022-10-22T05:13:27.231Z,20
2022-10-22T05:14:27.232Z,18
2022-10-22T05:15:27.219Z,16
2022-10-22T05:16:27.219Z,17
2022-10-22T05:17:27.232Z,18
2022-10-22T05:18:27.232Z,19
2022-10-22T05:19:27.220Z,17
2022-10-22T05:20:27.233Z,17
2022-10-22T05:21:27.234Z,15
2022-10-22T05:22:27.234Z,21
2022-10-22T05:23:27.221Z,18
2022-10-22T05:24:27.235Z,20
2022-10-22T05:25:27.238Z,18
2022-10-22T05:26:27.235Z,17
2022-10-22T05:27:27.222Z,17
2022-10-22T05:28:27.236Z,21
2022-10-22T05:29:27.237Z,16
2022-10-22T05:30:27.236Z,19
2022-10-22T05:31:27.223Z,15
2022-10-22T05:32:27.237Z,19
2022-10-22T05:33:27.238Z,14
2022-10-22T05:34:27.224Z,16
2022-10-22T05:35:27.225Z,16
2022-10-22T05:36:27.238Z,20
2022-10-22T05:37:27.302Z,19
2022-10-22T05:38:27.226Z,21
2022-10-22T05:39:27.239Z,18
2022-10-22T05:40:27.239Z,22
2022-10-22T05:41:27.240Z,26
2022-10-22T05:42:27.227Z,21
2022-10-22T05:43:27.240Z,22
2022-10-22T05:44:27.240Z,21
2022-10-22T05:45:27.241Z,16
2022-10-22T05:46:27.228Z,19
2022-10-22T05:47:27.241Z,18
2022-10-22T05:48:27.242Z,20
2022-10-22T05:49:27.242Z,22
2022-10-22T05:50:27.229Z,23
2022-10-22T05:51:27.243Z,21
2022-10-22T05:52:27.244Z,22
2022-10-22T05:53:27.230Z,18
2022-10-22T05:54:27.230Z,20
2022-10-22T05:55:27.244Z,21
2022-10-22T05:56:27.308Z,19
2022-10-22T05:57:27.231Z,21
2022-10-22T05:58:27.245Z,24
2022-10-22T05:59:27.245Z,22
2022-10-22T06:00:27.245Z,18
2022-10-22T06:01:27.233Z,20
2022-10-22T06:02:27.246Z,18
2022-10-22T06:03:27.247Z,21
2022-10-22T06:04:27.247Z,20
2022-10-22T06:05:27.234Z,19
2022-10-22T06:06:27.247Z,27
2022-10-22T06:07:27.248Z,23
2022-10-22T06:08:27.235Z,23
2022-10-22T06:09:27.235Z,23
2022-10-22T06:10:27.248Z,25
2022-10-22T06:11:27.249Z,26
2022-10-22T06:12:27.236Z,24
2022-10-22T06:13:27.236Z,26
2022-10-22T06:14:27.250Z,25
2022-10-22T06:15:27.250Z,28
2022-10-22T06:16:27.237Z,24
2022-10-22T06:17:27.251Z,22
2022-10-22T06:18:27.251Z,21
2022-10-22T06:19:27.251Z,22
2022-10-22T06:20:27.238Z,24
2022-10-22T06:21:27.252Z,23
2022-10-22T06:22:27.297Z,20
2022-10-22T06:23:27.252Z,17
2022-10-22T06:24:27.240Z,20
2022-10-22T06:25:27.253Z,27
2022-10-22T06:26:27.254Z,18
2022-10-22T06:27:27.254Z,21
2022-10-22T06:28:27.241Z,23
2022-10-22T06:29:27.254Z,25
2022-10-22T06:30:27.255Z,30
2022-10-22T06:31:27.242Z,21
2022-10-22T06:32:27.242Z,26
2022-10-22T06:33:27.255Z,24
2022-10-22T06:34:27.320Z,24
2022-10-22T06:35:27.243Z,27
2022-10-22T06:36:27.256Z,25
2022-10-22T06:37:27.257Z,25
2022-10-22T06:38:27.257Z,23
2022-10-22T06:39:27.244Z,20
2022-10-22T06:40:27.258Z,21
2022-10-22T06:41:27.258Z,23
2022-10-22T06:42:27.258Z,20
2022-10-22T06:43:27.245Z,23
2022-10-22T06:44:27.259Z,21
2022-10-22T06:45:27.260Z,29
2022-10-22T06:46:27.246Z,28
2022-10-22T06:47:27.246Z,25
2022-10-22T06:48:27.260Z,25
2022-10-22T06:49:27.261Z,26
2022-10-22T06:50:27.247Z,35
2022-10-22T06:51:27.248Z,35
2022-10-22T06:53:27.261Z,30
2022-10-22T06:54:27.249Z,31
2022-10-22T06:55:27.262Z,27
2022-10-22T06:56:27.262Z,29
2022-10-22T06:57:27.262Z,29
2022-10-22T06:58:27.250Z,25
2022-10-22T06:59:27.263Z,36
2022-10-22T07:00:27.264Z,35
2022-10-22T07:01:27.264Z,30
2022-10-22T07:02:27.251Z,30
2022-10-22T07:03:27.264Z,28
2022-10-22T07:04:27.266Z,35
2022-10-22T07:05:27.252Z,40
2022-10-22T07:06:27.252Z,27
2022-10-22T07:07:27.266Z,30
2022-10-22T07:08:27.266Z,29
2022-10-22T07:09:27.253Z,28
2022-10-22T07:10:27.293Z,27
2022-10-22T07:11:27.267Z,33
2022-10-22T07:12:27.267Z,33
2022-10-22T07:13:27.254Z,38
2022-10-22T07:14:27.268Z,34
2022-10-22T07:15:27.268Z,41
2022-10-22T07:16:27.268Z,27
2022-10-22T07:17:27.256Z,27
2022-10-22T07:18:27.269Z,37
2022-10-22T07:19:27.270Z,34
2022-10-22T07:20:27.270Z,33
2022-10-22T07:21:27.257Z,38
2022-10-22T07:22:32.615Z,38
2022-10-22T07:23:27.271Z,35
2022-10-22T07:24:27.271Z,31
2022-10-22T07:25:27.258Z,26
2022-10-22T07:26:27.272Z,26
2022-10-22T07:27:27.272Z,27
2022-10-22T07:28:27.259Z,27
2022-10-22T07:29:27.259Z,34
2022-10-22T07:30:27.273Z,35
2022-10-22T07:31:27.274Z,31
2022-10-22T07:32:27.260Z,32
2022-10-22T07:33:27.274Z,36
2022-10-22T07:35:27.275Z,40
2022-10-22T07:36:27.262Z,39
2022-10-22T07:37:27.275Z,38
2022-10-22T07:38:27.276Z,38
2022-10-22T07:39:27.276Z,37
2022-10-22T07:40:27.263Z,40
2022-10-22T07:41:27.276Z,40
2022-10-22T07:42:27.277Z,37
2022-10-22T07:43:27.290Z,34
2022-10-22T07:44:27.264Z,35
2022-10-22T07:45:27.278Z,55
2022-10-22T07:46:27.278Z,52
2022-10-22T07:47:27.265Z,48
2022-10-22T07:48:27.265Z,45
2022-10-22T07:49:27.279Z,51
2022-10-22T07:50:27.279Z,53
2022-10-22T07:51:27.266Z,60
2022-10-22T07:52:27.280Z,55
2022-10-22T07:53:27.280Z,54
2022-10-22T07:54:27.280Z,46
2022-10-22T07:55:27.268Z,48
2022-10-22T07:56:27.281Z,55
2022-10-22T07:57:27.282Z,50
2022-10-22T07:58:27.282Z,50
2022-10-22T07:59:27.269Z,52
2022-10-22T08:00:27.282Z,55
2022-10-22T08:01:27.283Z,51
2022-10-22T08:02:27.270Z,47
2022-10-22T08:03:27.270Z,38
2022-10-22T08:04:27.284Z,42
2022-10-22T08:05:27.285Z,46
2022-10-22T08:06:27.271Z,42
2022-10-22T08:07:27.272Z,43
2022-10-22T08:08:27.285Z,44
2022-10-22T08:09:27.285Z,46
2022-10-22T08:10:27.273Z,47
2022-10-22T08:11:27.286Z,49
2022-10-22T08:12:27.286Z,52
2022-10-22T08:13:27.286Z,44
2022-10-22T08:14:27.274Z,38
2022-10-22T08:15:27.287Z,42
2022-10-22T08:16:27.288Z,53
2022-10-22T08:17:27.288Z,65
2022-10-22T08:18:27.275Z,69
2022-10-22T08:19:27.289Z,81
2022-10-22T08:20:27.289Z,67
2022-10-22T08:21:27.276Z,68
2022-10-22T08:22:30.376Z,66
2022-10-22T08:23:27.290Z,67
2022-10-22T08:24:27.291Z,65
2022-10-22T08:25:27.278Z,60
2022-10-22T08:26:27.278Z,60
2022-10-22T08:27:27.291Z,58
2022-10-22T08:28:27.317Z,63
2022-10-22T08:29:27.279Z,51
2022-10-22T08:30:27.293Z,52
2022-10-22T08:31:27.293Z,58
2022-10-22T08:32:27.293Z,47
2022-10-22T08:33:27.281Z,58
2022-10-22T08:34:27.295Z,63
2022-10-22T08:35:27.295Z,54
2022-10-22T08:36:27.295Z,53
2022-10-22T08:37:27.282Z,50
2022-10-22T08:38:27.296Z,56
2022-10-22T08:39:27.297Z,62
2022-10-22T08:40:27.284Z,65
2022-10-22T08:41:27.284Z,66
2022-10-22T08:42:27.298Z,56
2022-10-22T08:43:27.299Z,59
2022-10-22T08:44:27.285Z,58
2022-10-22T08:45:27.286Z,56
2022-10-22T08:46:27.299Z,76
2022-10-22T08:47:27.300Z,72
2022-10-22T08:48:27.287Z,65
2022-10-22T08:49:27.301Z,69
2022-10-22T08:50:27.301Z,65
2022-10-22T08:51:27.302Z,66
2022-10-22T08:52:27.289Z,60
2022-10-22T08:53:27.303Z,58
2022-10-22T08:54:27.304Z,59
2022-10-22T08:55:27.304Z,56
2022-10-22T08:56:27.291Z,52
2022-10-22T08:57:27.305Z,49
2022-10-22T08:58:27.305Z,51
2022-10-22T08:59:27.292Z,51
2022-10-22T09:00:27.293Z,70
2022-10-22T09:01:27.306Z,63
2022-10-22T09:02:27.307Z,66
2022-10-22T09:03:27.294Z,75
2022-10-22T09:04:27.295Z,56
2022-10-22T09:05:27.308Z,54
2022-10-22T09:06:27.309Z,60
2022-10-22T09:07:27.296Z,48
2022-10-22T09:08:27.310Z,57
2022-10-22T09:09:27.310Z,55
2022-10-22T09:10:27.311Z,65
2022-10-22T09:11:27.298Z,68
2022-10-22T09:12:27.312Z,72
2022-10-22T09:13:27.313Z,69
2022-10-22T09:14:27.313Z,69
2022-10-22T09:15:27.300Z,78
2022-10-22T09:16:27.314Z,78
2022-10-22T09:17:27.315Z,70
2022-10-22T09:18:27.302Z,71
2022-10-22T09:19:27.302Z,76
2022-10-22T09:20:27.316Z,76
2022-10-22T09:21:27.317Z,57
2022-10-22T09:22:27.303Z,49
2022-10-22T09:23:27.304Z,63
2022-10-22T09:24:27.318Z,59
2022-10-22T09:25:27.318Z,68
2022-10-22T09:26:27.305Z,80
2022-10-22T09:27:27.319Z,78
2022-10-22T09:28:27.319Z,77
2022-10-22T09:29:27.320Z,68
2022-10-22T09:30:27.307Z,96
2022-10-22T09:31:27.321Z,84
2022-10-22T09:33:27.322Z,80
2022-10-22T09:34:27.309Z,70
2022-10-22T09:35:27.323Z,67
2022-10-22T09:36:27.324Z,58
2022-10-22T09:37:27.310Z,63
2022-10-22T09:38:27.311Z,66
2022-10-22T09:39:27.325Z,69
2022-10-22T09:40:27.326Z,75
2022-10-22T09:41:27.312Z,84
2022-10-22T09:42:27.313Z,92
2022-10-22T09:43:27.327Z,66
2022-10-22T09:44:27.328Z,79
2022-10-22T09:45:27.314Z,86
2022-10-22T09:46:27.328Z,73
2022-10-22T09:47:27.329Z,56
2022-10-22T09:48:27.329Z,79
2022-10-22T09:49:27.317Z,60
2022-10-22T09:50:27.330Z,65
2022-10-22T09:51:27.383Z,64
2022-10-22T09:52:27.331Z,60
2022-10-22T09:53:27.319Z,54
2022-10-22T09:54:27.332Z,66
2022-10-22T09:55:27.333Z,67
2022-10-22T09:56:27.333Z,65
2022-10-22T09:57:27.321Z,68
2022-10-22T09:58:27.334Z,67
2022-10-22T09:59:27.336Z,67
2022-10-22T10:00:27.322Z,71
2022-10-22T10:01:27.323Z,67
2022-10-22T10:02:27.337Z,66
2022-10-22T10:03:27.401Z,67
2022-10-22T10:04:27.325Z,63
2022-10-22T10:05:27.338Z,61
2022-10-22T10:06:27.339Z,64
2022-10-22T10:07:27.339Z,68
2022-10-22T10:08:27.327Z,72
2022-10-22T10:09:27.341Z,59
2022-10-22T10:10:27.342Z,59
2022-10-22T10:11:27.341Z,61
2022-10-22T10:12:27.329Z,61
2022-10-22T10:13:27.343Z,74
2022-10-22T10:14:27.344Z,75
2022-10-22T10:15:27.331Z,74
2022-10-22T10:16:27.331Z,76
2022-10-22T10:17:27.345Z,89
2022-10-22T10:18:27.346Z,77
2022-10-22T10:19:27.333Z,84
2022-10-22T10:20:27.333Z,84
2022-10-22T10:21:27.347Z,84
2022-10-22T10:22:27.347Z,90
2022-10-22T10:23:27.335Z,91
2022-10-22T10:24:27.349Z,83
2022-10-22T10:25:27.349Z,90
2022-10-22T10:26:27.350Z,82
2022-10-22T10:27:27.337Z,95
2022-10-22T10:28:27.351Z,87
2022-10-22T10:29:27.352Z,82
2022-10-22T10:30:27.351Z,92
2022-10-22T10:31:27.339Z,99
2022-10-22T10:32:27.352Z,71
2022-10-22T10:33:27.353Z,69
2022-10-22T10:34:27.340Z,74
2022-10-22T10:35:27.341Z,73
2022-10-22T10:36:27.354Z,68
2022-10-22T10:37:27.356Z,73
2022-10-22T10:38:27.342Z,73
2022-10-22T10:39:27.343Z,75
2022-10-22T10:40:27.356Z,79
2022-10-22T10:41:27.357Z,75
2022-10-22T10:42:27.344Z,75
2022-10-22T10:43:27.358Z,72
2022-10-22T10:44:27.359Z,67
2022-10-22T10:45:27.359Z,72
2022-10-22T10:46:27.347Z,69
2022-10-22T10:47:27.360Z,70
2022-10-22T10:48:27.361Z,68
2022-10-22T10:49:27.361Z,64
2022-10-22T10:50:27.349Z,66
2022-10-22T10:51:27.363Z,70
2022-10-22T10:52:27.363Z,75
2022-10-22T10:53:27.364Z,76
2022-10-22T10:54:27.351Z,70
2022-10-22T10:55:27.365Z,71
2022-10-22T10:56:27.366Z,76
2022-10-22T10:57:27.353Z,72
2022-10-22T10:58:27.353Z,70
2022-10-22T10:59:27.367Z,63
2022-10-22T11:00:27.368Z,62
2022-10-22T11:01:27.355Z,63
2022-10-22T11:02:27.355Z,61
2022-10-22T11:03:27.369Z,71
2022-10-22T11:04:27.370Z,59
2022-10-22T11:05:27.357Z,54
2022-10-22T11:06:27.371Z,63
2022-10-22T11:07:27.371Z,74
2022-10-22T11:08:27.372Z,74
2022-10-22T11:09:27.359Z,75
2022-10-22T11:10:27.373Z,67
2022-10-22T11:11:27.374Z,69
2022-10-22T11:12:27.374Z,75
2022-10-22T11:13:27.361Z,65
2022-10-22T11:14:27.375Z,75
2022-10-22T11:15:27.376Z,82
2022-10-22T11:16:27.363Z,88
2022-10-22T11:17:27.364Z,76
2022-10-22T11:18:27.377Z,78
2022-10-22T11:19:27.378Z,77
2022-10-22T11:20:27.365Z,76
2022-10-22T11:21:27.429Z,75
2022-10-22T11:22:27.380Z,77
2022-10-22T11:23:27.380Z,77
2022-10-22T11:24:27.368Z,74
2022-10-22T11:25:27.381Z,81
2022-10-22T11:26:27.382Z,73
2022-10-22T11:27:27.382Z,80
2022-10-22T11:28:27.370Z,62
2022-10-22T11:29:27.384Z,67
2022-10-22T11:30:27.384Z,81
2022-10-22T11:31:27.385Z,79
2022-10-22T11:32:27.372Z,87
2022-10-22T11:33:27.386Z,86
2022-10-22T11:34:27.387Z,91
2022-10-22T11:35:27.374Z,85
2022-10-22T11:36:27.374Z,87
2022-10-22T11:37:27.388Z,90
2022-10-22T11:38:27.389Z,85
2022-10-22T11:39:27.376Z,80
2022-10-22T11:40:27.390Z,83
2022-10-22T11:41:27.390Z,89
2022-10-22T11:42:27.391Z,76
2022-10-22T11:43:27.378Z,71
2022-10-22T11:44:27.392Z,80
2022-10-22T11:45:27.393Z,88
2022-10-22T11:46:27.393Z,86
2022-10-22T11:47:27.380Z,80
2022-10-22T11:48:27.394Z,65
2022-10-22T11:49:27.395Z,70
2022-10-22T11:50:27.396Z,74
2022-10-22T11:51:27.382Z,75
2022-10-22T11:52:27.396Z,69
2022-10-22T11:53:27.397Z,64
2022-10-22T11:54:27.384Z,66
2022-10-22T11:55:27.385Z,63
2022-10-22T11:56:27.398Z,60
2022-10-22T11:57:27.400Z,65
2022-10-22T11:58:27.386Z,55
2022-10-22T11:59:27.400Z,70
2022-10-22T12:00:27.401Z,65
2022-10-22T12:01:27.401Z,67
2022-10-22T12:02:27.388Z,74
2022-10-22T12:03:27.402Z,74
2022-10-22T12:04:27.455Z,71
2022-10-22T12:05:27.403Z,84
2022-10-22T12:06:27.391Z,59
2022-10-22T12:07:27.404Z,56
2022-10-22T12:08:27.405Z,50
2022-10-22T12:09:27.405Z,56
2022-10-22T12:10:27.393Z,59
2022-10-22T12:11:27.406Z,60
2022-10-22T12:12:27.408Z,62
2022-10-22T12:13:27.394Z,55
2022-10-22T12:14:27.395Z,61
2022-10-22T12:15:27.408Z,71
2022-10-22T12:16:27.409Z,71
2022-10-22T12:17:27.396Z,74
2022-10-22T12:18:27.410Z,71
2022-10-22T12:19:27.411Z,65
2022-10-22T12:20:27.411Z,65
2022-10-22T12:21:27.399Z,59
2022-10-22T12:22:27.412Z,53
2022-10-22T12:23:27.459Z,57
2022-10-22T12:24:27.413Z,56
2022-10-22T12:25:27.401Z,61
2022-10-22T12:26:27.415Z,55
2022-10-22T12:27:27.416Z,58
2022-10-22T12:28:27.416Z,62
2022-10-22T12:29:27.403Z,62
2022-10-22T12:30:27.417Z,60
2022-10-22T12:31:27.419Z,72
2022-10-22T12:32:27.405Z,66
2022-10-22T12:33:27.405Z,58
2022-10-22T12:34:27.419Z,58
2022-10-22T12:35:27.484Z,55
2022-10-22T12:36:27.407Z,48
2022-10-22T12:37:27.421Z,63
2022-10-22T12:38:27.421Z,59
2022-10-22T12:39:27.422Z,57
2022-10-22T12:40:27.409Z,61
2022-10-22T12:41:27.423Z,55
2022-10-22T12:42:27.424Z,65
2022-10-22T12:43:27.424Z,65
2022-10-22T12:44:27.411Z,81
2022-10-22T12:45:27.425Z,80
2022-10-22T12:46:27.426Z,75
2022-10-22T12:47:27.413Z,77
2022-10-22T12:48:27.413Z,67
2022-10-22T12:49:27.427Z,70
2022-10-22T12:50:27.428Z,70
2022-10-22T12:51:27.415Z,81
2022-10-22T12:52:27.415Z,80
2022-10-22T12:53:27.429Z,86
2022-10-22T12:54:27.430Z,93
2022-10-22T12:55:27.417Z,86
2022-10-22T12:56:27.431Z,86
2022-10-22T12:57:27.431Z,86
2022-10-22T12:58:27.432Z,91
2022-10-22T12:59:27.419Z,79
2022-10-22T13:00:27.433Z,99
2022-10-22T13:01:27.434Z,94
2022-10-22T13:02:27.434Z,87
2022-10-22T13:03:27.421Z,73
2022-10-22T13:04:27.435Z,80
2022-10-22T13:05:27.436Z,72
2022-10-22T13:06:27.436Z,73
2022-10-22T13:07:27.423Z,88
2022-10-22T13:08:27.437Z,85
2022-10-22T13:09:27.438Z,91
2022-10-22T13:10:27.425Z,93
2022-10-22T13:11:27.425Z,92
2022-10-22T13:12:27.439Z,89
2022-10-22T13:13:27.440Z,85
2022-10-22T13:14:27.427Z,90
2022-10-22T13:15:27.441Z,97
2022-10-22T13:16:27.441Z,96
2022-10-22T13:17:27.441Z,87
2022-10-22T13:18:27.429Z,93
2022-10-22T13:19:27.443Z,87
2022-10-22T13:20:27.444Z,86
2022-10-22T13:21:27.444Z,85
2022-10-22T13:22:27.431Z,77
2022-10-22T13:23:27.445Z,86
2022-10-22T13:24:27.446Z,83
2022-10-22T13:25:27.433Z,87
2022-10-22T13:26:27.433Z,74
2022-10-22T13:27:27.447Z,76
2022-10-22T13:28:27.448Z,75
2022-10-22T13:29:27.435Z,74
2022-10-22T13:30:27.475Z,88
2022-10-22T13:31:27.449Z,77
2022-10-22T13:32:27.449Z,75
2022-10-22T13:33:27.437Z,78
2022-10-22T13:34:27.451Z,76
2022-10-22T13:35:27.451Z,74
2022-10-22T13:36:27.451Z,68
2022-10-22T13:37:27.439Z,75
2022-10-22T13:38:27.453Z,73
2022-10-22T13:39:27.454Z,66
2022-10-22T13:40:27.454Z,69
2022-10-22T13:41:27.441Z,69
2022-10-22T13:42:27.496Z,77
2022-10-22T13:43:27.456Z,84
2022-10-22T13:44:27.443Z,87
2022-10-22T13:45:27.443Z,88
2022-10-22T13:46:27.457Z,86
2022-10-22T13:47:27.459Z,91
2022-10-22T13:48:27.445Z,91
2022-10-22T13:49:27.459Z,76
2022-10-22T13:50:27.459Z,74
2022-10-22T13:51:27.460Z,74
2022-10-22T13:52:27.447Z,84
2022-10-22T13:53:27.461Z,79
2022-10-22T13:54:27.461Z,68
2022-10-22T13:55:27.462Z,71
2022-10-22T13:56:27.449Z,70
2022-10-22T13:57:27.463Z,68
2022-10-22T13:58:27.464Z,67
2022-10-22T13:59:27.464Z,74
2022-10-22T14:00:27.452Z,86
2022-10-22T14:01:27.465Z,80
2022-10-22T14:02:27.467Z,74
2022-10-22T14:03:27.453Z,85
2022-10-22T14:04:27.454Z,83
2022-10-22T14:05:27.467Z,78
2022-10-22T14:06:27.468Z,79
2022-10-22T14:07:27.455Z,82
2022-10-22T14:08:27.456Z,72
2022-10-22T14:09:27.469Z,78
2022-10-22T14:10:27.470Z,83
2022-10-22T14:11:27.457Z,95
2022-10-22T14:12:27.471Z,93
2022-10-22T14:13:27.471Z,88
2022-10-22T14:14:27.472Z,75
2022-10-22T14:15:27.472Z,84
2022-10-22T14:16:27.473Z,72
2022-10-22T14:17:27.474Z,77
2022-10-22T14:18:27.474Z,80
2022-10-22T14:19:27.461Z,89